»·PEaware :: SWA5507 KOAK-KSAN

SWA5507 :: KOAK-KSAN

FLIGHT INFORMATION

Flight Status: Arrived
Operator:
Southwest Airlines
More flights by this operator :: More flights under this callsign
Pilot: Michael F. (26726)
Aircraft: BOEING 737-700
(B737)
More flights by this aircraft type
Origin: KOAK Metro Oakland Intl
United States
Destination: KSAN San Diego Intl-Lindbergh
United States
More flights between these airports :: More routes between these airports
Route: COAST9 MCKEY LAX COMIX2
File this flight plan on PilotEdge
Remarks: RMK / SIMBRIEF
Altitude:
(Current/Filed)
37,000ft
Speed:
(Current/Filed)
477kts
Departed: 09-Feb-20 07:27 PM
Arrived: 09-Feb-20 08:35 PM
Distance/Time
Traveled:
387nm/1:08
Distance/Time
To Go:
Arrived

Flight Plot

Page will automatically refresh every two minutes.

Flight plan parsing failed; only flown route is shown


Map Options




Map Legend


Flown Route
Filed Route
Departure Airport
Arrival Airport
Navaid (VOR, NDB)
Fix

Horizontal Profiles

Position Reports

Time Latitude Longitude Heading Altitude Ground
Speed
09-Feb-20 19:01 37.710908 -122.212346 36 14ft 0kts
09-Feb-20 19:02 37.710908 -122.212346 36 14ft 0kts
09-Feb-20 19:03 37.710908 -122.212346 36 14ft 0kts
09-Feb-20 19:04 37.710908 -122.212346 36 14ft 0kts
09-Feb-20 19:05 37.710908 -122.212346 36 14ft 0kts
09-Feb-20 19:06 37.710908 -122.212346 36 14ft 0kts
09-Feb-20 19:07 37.710908 -122.212346 36 14ft 0kts
09-Feb-20 19:08 37.710908 -122.212346 36 14ft 0kts
09-Feb-20 19:09 37.710908 -122.212346 36 14ft 0kts
09-Feb-20 19:11 37.710908 -122.212346 36 14ft 0kts
09-Feb-20 19:12 37.710908 -122.212346 36 14ft 0kts
09-Feb-20 19:13 37.710908 -122.212345 36 14ft 0kts
09-Feb-20 19:14 37.710909 -122.212345 36 14ft 0kts
09-Feb-20 19:15 37.710910 -122.212344 36 14ft 0kts
09-Feb-20 19:16 37.710911 -122.212343 36 14ft 0kts
09-Feb-20 19:17 37.710918 -122.212335 39 14ft 0kts
09-Feb-20 19:18 37.710198 -122.212778 275 14ft 6kts
09-Feb-20 19:19 37.710213 -122.213631 247 14ft 0kts
09-Feb-20 19:20 37.710062 -122.213887 214 14ft 0kts
09-Feb-20 19:21 37.709875 -122.214037 211 14ft 0kts
09-Feb-20 19:22 37.709705 -122.214172 215 14ft 2kts
09-Feb-20 19:23 37.708810 -122.215052 232 14ft 8kts
09-Feb-20 19:24 37.706562 -122.217817 166 14ft 12kts
09-Feb-20 19:25 37.704244 -122.214570 129 14ft 14kts
09-Feb-20 19:26 37.702212 -122.213726 209 14ft 5kts
09-Feb-20 19:27 37.706454 -122.221649 309 14ft 103kts
09-Feb-20 19:28 37.731526 -122.260280 310 1971ft 171kts
09-Feb-20 19:29 37.767027 -122.320871 312 4049ft 249kts
09-Feb-20 19:30 37.807631 -122.401009 290 7459ft 295kts
09-Feb-20 19:31 37.770147 -122.493115 205 10637ft 340kts
09-Feb-20 19:31 37.687188 -122.511141 179 11937ft 401kts
09-Feb-20 19:33 37.546749 -122.522874 179 14727ft 449kts
09-Feb-20 19:33 37.440842 -122.531829 179 17054ft 467kts
09-Feb-20 19:34 37.307941 -122.543105 180 19000ft 485kts
09-Feb-20 19:35 37.172394 -122.554577 179 20244ft 496kts
09-Feb-20 19:37 37.007925 -122.568249 178 22625ft 517kts
09-Feb-20 19:37 36.888839 -122.555683 161 24121ft 517kts
09-Feb-20 19:38 36.746716 -122.516135 161 25865ft 528kts
09-Feb-20 19:39 36.601458 -122.478274 161 27258ft 540kts
09-Feb-20 19:40 36.454339 -122.435877 149 28629ft 532kts
09-Feb-20 19:41 36.347380 -122.326851 118 30194ft 486kts
09-Feb-20 19:42 36.259934 -122.196354 120 31279ft 495kts
09-Feb-20 19:43 36.170341 -122.065673 120 32325ft 502kts
09-Feb-20 19:44 36.078856 -121.932801 122 33315ft 509kts
09-Feb-20 19:45 35.986247 -121.799293 123 34292ft 513kts
09-Feb-20 19:46 35.893043 -121.665478 124 35378ft 513kts
09-Feb-20 19:47 35.799734 -121.532062 126 36304ft 513kts
09-Feb-20 19:48 35.706564 -121.399373 127 36988ft 512kts
09-Feb-20 19:49 35.613769 -121.267312 128 36970ft 509kts
09-Feb-20 19:50 35.520917 -121.136407 128 36965ft 509kts
09-Feb-20 19:51 35.434479 -120.999602 121 36962ft 505kts
09-Feb-20 19:52 35.354973 -120.857643 122 36957ft 504kts
09-Feb-20 19:53 35.274836 -120.716637 122 36952ft 505kts
09-Feb-20 19:54 35.194793 -120.575229 122 36950ft 505kts
09-Feb-20 19:55 35.130835 -120.463185 123 36951ft 504kts
09-Feb-20 19:56 35.050396 -120.323169 123 36957ft 503kts
09-Feb-20 19:57 34.969734 -120.183249 123 36957ft 504kts
09-Feb-20 19:58 34.896874 -120.057336 124 36955ft 505kts
09-Feb-20 19:59 34.816068 -119.918173 124 36940ft 503kts
09-Feb-20 20:00 34.734880 -119.778975 125 36946ft 503kts
09-Feb-20 20:01 34.653673 -119.640258 125 36908ft 504kts
09-Feb-20 20:02 34.572282 -119.501761 125 36906ft 505kts
09-Feb-20 20:03 34.499070 -119.377637 125 36907ft 504kts
09-Feb-20 20:04 34.426044 -119.254254 125 36904ft 503kts
09-Feb-20 20:05 34.354107 -119.133124 126 36896ft 503kts
09-Feb-20 20:06 34.272420 -118.996055 126 36890ft 503kts
09-Feb-20 20:07 34.190465 -118.859080 126 36892ft 502kts
09-Feb-20 20:08 34.121534 -118.744224 127 36891ft 501kts
09-Feb-20 20:09 34.039767 -118.608116 127 36892ft 501kts
09-Feb-20 20:10 33.971652 -118.495727 128 36899ft 502kts
09-Feb-20 20:11 33.885313 -118.369467 136 36900ft 499kts
09-Feb-20 20:12 33.803326 -118.263982 135 36898ft 499kts
09-Feb-20 20:13 33.709584 -118.141060 135 35149ft 500kts
09-Feb-20 20:14 33.616572 -118.019383 135 31707ft 497kts
09-Feb-20 20:15 33.523453 -117.900245 139 27787ft 477kts
09-Feb-20 20:16 33.430235 -117.793770 140 24186ft 449kts
09-Feb-20 20:17 33.336435 -117.694242 141 20971ft 443kts
09-Feb-20 20:18 33.246568 -117.598597 141 17804ft 424kts
09-Feb-20 20:19 33.160259 -117.507801 140 14836ft 404kts
09-Feb-20 20:20 33.072578 -117.429683 146 11977ft 383kts
09-Feb-20 20:21 32.989536 -117.360171 145 10660ft 332kts
09-Feb-20 20:22 32.929568 -117.309979 145 10470ft 267kts
09-Feb-20 20:23 32.870507 -117.260770 145 9345ft 261kts
09-Feb-20 20:24 32.813708 -117.208182 123 7923ft 258kts
09-Feb-20 20:25 32.793071 -117.128478 104 6566ft 243kts
09-Feb-20 20:26 32.777281 -117.057433 105 5914ft 197kts
09-Feb-20 20:27 32.762533 -116.997182 106 5296ft 188kts
09-Feb-20 20:28 32.730570 -116.955511 169 4531ft 178kts
09-Feb-20 20:29 32.692028 -116.985487 251 3673ft 185kts
09-Feb-20 20:30 32.697668 -117.043122 284 2663ft 167kts
09-Feb-20 20:31 32.710363 -117.092818 283 1883ft 150kts
09-Feb-20 20:32 32.722224 -117.142963 287 906ft 162kts
09-Feb-20 20:33 32.734120 -117.191850 285 23ft 92kts
09-Feb-20 20:34 32.734776 -117.198470 141 23ft 4kts
09-Feb-20 20:35 32.734741 -117.198425 129 23ft 0kts
09-Feb-20 20:36 32.734431 -117.197461 105 23ft 8kts
09-Feb-20 20:37 32.733249 -117.196896 140 23ft 3kts
09-Feb-20 20:38 32.733154 -117.196799 139 23ft 0kts
09-Feb-20 20:39 32.733154 -117.196799 139 23ft 0kts
09-Feb-20 20:40 32.733154 -117.196799 139 23ft 0kts
09-Feb-20 20:41 32.733154 -117.196799 139 23ft 0kts
09-Feb-20 20:42 32.733154 -117.196799 139 23ft 0kts
09-Feb-20 20:43 32.733154 -117.196799 139 23ft 0kts
09-Feb-20 20:44 32.733154 -117.196799 139 23ft 0kts
09-Feb-20 20:45 32.733154 -117.196799 139 23ft 0kts
09-Feb-20 20:46 32.733154 -117.196799 139 23ft 0kts
09-Feb-20 20:47 32.733154 -117.196799 139 23ft 0kts
09-Feb-20 20:48 32.733154 -117.196799 139 23ft 0kts
09-Feb-20 20:49 32.733154 -117.196799 139 23ft 0kts

Navigation Log

Ident Type
Flight plan parsing failed, navigation log unavailable